createdAt,value
2022-12-18T00:00:46.008Z,-8.06
2022-12-18T00:03:54.480Z,-8.15
2022-12-18T00:07:01.283Z,-8.23
2022-12-18T00:10:15.356Z,-8.21
2022-12-18T00:13:23.729Z,-8.21
2022-12-18T00:16:33.350Z,-8.29
2022-12-18T00:19:39.349Z,-8.32
2022-12-18T00:22:45.727Z,-8.39
2022-12-18T00:25:58.377Z,-8.49
2022-12-18T00:29:05.849Z,-8.45
2022-12-18T00:32:14.527Z,-8.39
2022-12-18T00:39:01.707Z,-8.51
2022-12-18T00:42:36.128Z,-8.53
2022-12-18T00:45:54.574Z,-8.52
2022-12-18T00:49:29.588Z,-8.54
2022-12-18T00:56:14.660Z,-8.56
2022-12-18T01:00:00.423Z,-8.54
2022-12-18T01:03:47.894Z,-8.63
2022-12-18T01:07:27.313Z,-8.63
2022-12-18T01:11:03.367Z,-8.66
2022-12-18T01:14:42.977Z,-8.67
2022-12-18T01:18:35.835Z,-8.67
2022-12-18T01:22:07.627Z,-8.65
2022-12-18T01:29:02.424Z,-8.66
2022-12-18T01:32:24.077Z,-8.64
2022-12-18T01:35:44.623Z,-8.49
2022-12-18T01:39:03.473Z,-8.57
2022-12-18T01:42:18.197Z,-8.50
2022-12-18T01:45:32.048Z,-8.50
2022-12-18T01:48:46.751Z,-8.57
2022-12-18T01:52:09.916Z,-8.56
2022-12-18T01:55:27.034Z,-8.59
2022-12-18T01:59:01.477Z,-8.54
2022-12-18T02:02:18.313Z,-8.51
2022-12-18T02:05:49.974Z,-8.48
2022-12-18T02:09:17.659Z,-8.55
2022-12-18T02:15:55.506Z,-8.50
2022-12-18T02:19:18.197Z,-8.44
2022-12-18T02:22:42.209Z,-8.36
2022-12-18T02:26:15.183Z,-8.26
2022-12-18T02:29:33.862Z,-8.19
2022-12-18T02:32:49.685Z,-8.02
2022-12-18T02:36:04.827Z,-7.86
2022-12-18T02:43:15.681Z,-7.74
2022-12-18T02:46:40.666Z,-7.69
2022-12-18T02:50:26.845Z,-7.68
2022-12-18T02:53:45.168Z,-7.65
2022-12-18T02:57:09.431Z,-7.62
2022-12-18T03:00:30.494Z,-7.46
2022-12-18T03:04:01.280Z,-7.55
2022-12-18T03:07:27.688Z,-7.70
2022-12-18T03:14:31.792Z,-7.50
2022-12-18T03:17:57.820Z,-7.44
2022-12-18T03:21:18.591Z,-7.35
2022-12-18T03:28:51.349Z,-7.37
2022-12-18T03:35:55.788Z,-7.34
2022-12-18T03:39:09.500Z,-7.23
2022-12-18T03:42:34.676Z,-7.13
2022-12-18T03:53:21.962Z,-7.35
2022-12-18T03:56:41.385Z,-7.30
2022-12-18T04:00:26.983Z,-7.23
2022-12-18T04:03:48.221Z,-7.23
2022-12-18T04:07:11.798Z,-7.16
2022-12-18T04:10:38.108Z,-7.18
2022-12-18T04:14:26.956Z,-7.21
2022-12-18T04:17:45.415Z,-7.30
2022-12-18T04:21:05.109Z,-7.38
2022-12-18T04:28:09.488Z,-7.35
2022-12-18T04:31:27.661Z,-7.46
2022-12-18T04:34:48.339Z,-7.73
2022-12-18T04:37:59.913Z,-7.93
2022-12-18T04:41:08.469Z,-7.99
2022-12-18T04:44:30.721Z,-8.13
2022-12-18T04:47:50.117Z,-8.47
2022-12-18T04:50:58.738Z,-8.62
2022-12-18T04:54:16.558Z,-8.72
2022-12-18T04:57:26.073Z,-8.66
2022-12-18T05:00:49.078Z,-8.35
2022-12-18T05:07:32.368Z,-7.97
2022-12-18T05:11:02.617Z,-7.78
2022-12-18T05:14:15.745Z,-7.62
2022-12-18T05:17:41.228Z,-7.57
2022-12-18T05:20:50.432Z,-7.59
2022-12-18T05:24:03.486Z,-7.70
2022-12-18T05:27:32.625Z,-7.80
2022-12-18T05:30:52.156Z,-7.92
2022-12-18T05:37:48.984Z,-7.79
2022-12-18T05:45:30.602Z,-8.09
2022-12-18T05:48:52.576Z,-8.36
2022-12-18T05:52:12.244Z,-8.47
2022-12-18T05:56:06.306Z,-8.67
2022-12-18T05:59:26.203Z,-8.86
2022-12-18T06:02:43.192Z,-8.97
2022-12-18T06:06:02.198Z,-8.84
2022-12-18T06:09:33.749Z,-8.74
2022-12-18T06:12:52.534Z,-8.79
2022-12-18T06:16:09.510Z,-8.88
2022-12-18T06:19:31.067Z,-8.82
2022-12-18T06:22:48.009Z,-8.88
2022-12-18T06:26:09.684Z,-8.89
2022-12-18T06:29:26.221Z,-8.98
2022-12-18T06:32:40.646Z,-8.98
2022-12-18T06:36:00.799Z,-9.03
2022-12-18T06:39:09.681Z,-9.07
2022-12-18T06:42:18.872Z,-9.09
2022-12-18T06:45:34.618Z,-9.06
2022-12-18T06:48:58.677Z,-9.00
2022-12-18T06:52:11.971Z,-9.00
2022-12-18T06:55:25.221Z,-8.98
2022-12-18T06:58:45.853Z,-8.98
2022-12-18T07:01:54.638Z,-8.85
2022-12-18T07:05:07.471Z,-8.79
2022-12-18T07:08:21.560Z,-8.76
2022-12-18T07:11:35.047Z,-8.73
2022-12-18T07:14:44.017Z,-8.66
2022-12-18T07:17:55.508Z,-8.65
2022-12-18T07:21:09.568Z,-8.66
2022-12-18T07:24:21.914Z,-8.64
2022-12-18T07:27:31.458Z,-8.64
2022-12-18T07:30:58.863Z,-8.65
2022-12-18T07:34:20.937Z,-8.64
2022-12-18T07:37:40.494Z,-8.59
2022-12-18T07:41:04.802Z,-8.51
2022-12-18T07:44:31.947Z,-8.39
2022-12-18T07:47:45.377Z,-8.31
2022-12-18T07:51:12.149Z,-8.22
2022-12-18T07:54:56.941Z,-8.19
2022-12-18T07:58:12.077Z,-8.14
2022-12-18T08:01:41.697Z,-8.00
2022-12-18T08:08:31.810Z,-7.83
2022-12-18T08:11:58.956Z,-7.77
2022-12-18T08:15:15.889Z,-7.77
2022-12-18T08:18:27.964Z,-7.81
2022-12-18T08:22:06.928Z,-7.80
2022-12-18T08:25:16.882Z,-7.84
2022-12-18T08:28:28.067Z,-7.76
2022-12-18T08:31:48.993Z,-7.60
2022-12-18T08:38:40.312Z,-7.22
2022-12-18T08:42:10.208Z,-7.04
2022-12-18T08:45:18.619Z,-6.92
2022-12-18T08:48:23.344Z,-6.91
2022-12-18T08:51:38.721Z,-6.91
2022-12-18T08:54:53.916Z,-6.77
2022-12-18T08:58:06.764Z,-6.65
2022-12-18T09:01:23.045Z,-6.61
2022-12-18T09:04:39.994Z,-6.56
2022-12-18T09:07:53.780Z,-6.62
2022-12-18T09:11:19.693Z,-6.55
2022-12-18T09:14:24.613Z,-6.40
2022-12-18T09:17:40.456Z,-6.31
2022-12-18T09:20:51.993Z,-6.26
2022-12-18T09:24:02.479Z,-6.21
2022-12-18T09:27:32.332Z,-6.05
2022-12-18T09:30:49.411Z,-5.25
2022-12-18T09:34:02.378Z,-4.92
2022-12-18T09:37:21.722Z,-4.80
2022-12-18T09:40:36.581Z,-4.21
2022-12-18T09:43:58.776Z,-3.91
2022-12-18T09:47:13.932Z,-4.24
2022-12-18T09:50:37.894Z,-4.70
2022-12-18T09:53:58.569Z,-4.87
2022-12-18T09:57:09.826Z,-5.00
2022-12-18T10:00:28.368Z,-5.11
2022-12-18T10:03:38.625Z,-4.98
2022-12-18T10:06:56.255Z,-5.00
2022-12-18T10:10:11.126Z,-4.83
2022-12-18T10:13:35.105Z,-4.62
2022-12-18T10:17:04.266Z,-4.42
2022-12-18T10:28:23.774Z,-3.94
2022-12-18T10:31:30.916Z,-3.88
2022-12-18T10:35:03.880Z,-3.82
2022-12-18T10:38:43.043Z,-3.71
2022-12-18T10:42:16.297Z,-3.62
2022-12-18T10:45:30.172Z,-3.60
2022-12-18T10:48:45.341Z,-3.31
2022-12-18T10:51:58.921Z,-2.65
2022-12-18T10:55:33.708Z,-2.05
2022-12-18T10:58:46.612Z,-1.54
2022-12-18T11:02:53.830Z,-1.27
2022-12-18T11:06:38.386Z,-1.21
2022-12-18T11:10:10.813Z,-0.87
2022-12-18T11:13:32.865Z,-0.17
2022-12-18T11:17:27.227Z,0.41
2022-12-18T11:20:58.857Z,0.51
2022-12-18T11:24:35.679Z,0.52
2022-12-18T11:31:47.180Z,1.30
2022-12-18T11:38:39.514Z,2.05
2022-12-18T11:42:22.360Z,2.00
2022-12-18T11:45:42.741Z,1.87
2022-12-18T11:48:56.966Z,2.05
2022-12-18T11:52:13.786Z,2.27
2022-12-18T11:55:27.531Z,2.86
2022-12-18T11:58:52.656Z,2.93
2022-12-18T12:02:31.993Z,3.09
2022-12-18T12:05:57.381Z,2.62
2022-12-18T12:09:14.520Z,2.27
2022-12-18T12:12:55.641Z,2.16
2022-12-18T12:16:27.397Z,2.30
2022-12-18T12:19:55.940Z,1.42
2022-12-18T12:23:32.113Z,1.26
2022-12-18T12:26:58.358Z,0.93
2022-12-18T12:30:25.508Z,0.70
2022-12-18T12:33:48.983Z,0.85
2022-12-18T12:48:58.085Z,1.48
2022-12-18T12:52:38.147Z,1.52
2022-12-18T12:56:20.946Z,1.73
2022-12-18T12:59:56.133Z,1.88
2022-12-18T13:03:27.678Z,2.43
2022-12-18T13:06:58.013Z,2.46
2022-12-18T13:11:00.473Z,2.68
2022-12-18T13:14:30.182Z,2.75
2022-12-18T13:22:06.925Z,3.01
2022-12-18T13:26:31.465Z,3.05
2022-12-18T13:30:12.782Z,2.90
2022-12-18T13:34:24.422Z,2.91
2022-12-18T13:42:05.613Z,2.97
2022-12-18T13:45:59.371Z,2.79
2022-12-18T13:49:35.379Z,2.55
2022-12-18T13:52:51.123Z,2.71
2022-12-18T13:56:03.028Z,2.36
2022-12-18T13:59:22.242Z,2.00
2022-12-18T14:02:52.160Z,1.76
2022-12-18T14:06:11.711Z,1.15
2022-12-18T14:13:05.962Z,0.44
2022-12-18T14:16:19.835Z,0.25
2022-12-18T14:19:30.054Z,-0.22
2022-12-18T14:22:42.433Z,-0.39
2022-12-18T14:25:53.646Z,-0.53
2022-12-18T14:29:05.836Z,-0.65
2022-12-18T14:32:31.749Z,-0.65
2022-12-18T14:36:01.416Z,-0.70
2022-12-18T14:39:28.171Z,-0.84
2022-12-18T14:42:37.605Z,-1.03
2022-12-18T14:45:46.531Z,-1.10
2022-12-18T14:49:12.424Z,-1.21
2022-12-18T14:52:53.530Z,-1.33
2022-12-18T14:56:28.278Z,-1.44
2022-12-18T15:03:47.225Z,-1.70
2022-12-18T15:07:28.034Z,-1.79
2022-12-18T15:15:19.379Z,-2.00
2022-12-18T15:18:38.541Z,-2.05
2022-12-18T15:22:27.639Z,-2.12
2022-12-18T15:25:45.575Z,-2.17
2022-12-18T15:29:18.993Z,-2.27
2022-12-18T15:32:59.194Z,-2.25
2022-12-18T15:36:26.748Z,-2.34
2022-12-18T15:39:38.713Z,-2.36
2022-12-18T15:43:18.542Z,-2.49
2022-12-18T15:46:33.526Z,-2.57
2022-12-18T15:49:47.020Z,-2.65
2022-12-18T15:53:00.443Z,-2.64
2022-12-18T15:56:36.001Z,-2.66
2022-12-18T16:00:02.467Z,-2.79
2022-12-18T16:03:36.353Z,-2.86
2022-12-18T16:07:14.840Z,-2.83
2022-12-18T16:11:00.013Z,-2.84
2022-12-18T16:17:55.880Z,-2.86
2022-12-18T16:21:17.531Z,-2.83
2022-12-18T16:24:50.567Z,-2.87
2022-12-18T16:28:08.922Z,-2.93
2022-12-18T16:31:16.720Z,-2.92
2022-12-18T16:34:51.718Z,-2.88
2022-12-18T16:38:14.306Z,-2.78
2022-12-18T16:41:36.284Z,-2.71
2022-12-18T16:44:42.918Z,-2.70
2022-12-18T16:47:53.001Z,-2.61
2022-12-18T16:51:13.603Z,-2.59
2022-12-18T16:54:30.728Z,-2.65
2022-12-18T16:57:48.609Z,-2.74
2022-12-18T17:05:08.765Z,-2.84
2022-12-18T17:08:32.352Z,-2.81
2022-12-18T17:11:48.359Z,-2.82
2022-12-18T17:15:10.258Z,-2.79
2022-12-18T17:18:18.632Z,-2.81
2022-12-18T17:21:27.989Z,-2.81
2022-12-18T17:24:43.953Z,-2.79
2022-12-18T17:27:53.044Z,-2.76
2022-12-18T17:30:58.160Z,-2.83
2022-12-18T17:34:02.935Z,-2.77
2022-12-18T17:37:05.641Z,-2.69
2022-12-18T17:40:11.831Z,-2.64
2022-12-18T17:43:14.585Z,-2.66
2022-12-18T17:46:19.207Z,-2.65
2022-12-18T17:49:22.079Z,-2.65
2022-12-18T17:52:24.801Z,-2.59
2022-12-18T17:55:28.915Z,-2.59
2022-12-18T17:58:31.616Z,-2.55
2022-12-18T18:01:42.435Z,-2.53
2022-12-18T18:04:46.888Z,-2.56
2022-12-18T18:07:51.010Z,-2.55
2022-12-18T18:10:55.381Z,-2.52
2022-12-18T18:14:04.522Z,-2.60
2022-12-18T18:17:08.559Z,-2.60
2022-12-18T18:20:12.080Z,-2.58
2022-12-18T18:23:14.721Z,-2.59
2022-12-18T18:26:45.006Z,-2.57
2022-12-18T18:29:50.005Z,-2.54
2022-12-18T18:33:10.364Z,-2.57
2022-12-18T18:36:44.711Z,-2.62
2022-12-18T18:39:51.745Z,-2.64
2022-12-18T18:43:12.062Z,-2.62
2022-12-18T18:46:34.552Z,-2.66
2022-12-18T18:49:38.628Z,-2.66
2022-12-18T18:53:12.717Z,-2.63
2022-12-18T18:57:18.777Z,-2.63
2022-12-18T19:00:21.491Z,-2.52
2022-12-18T19:03:33.194Z,-2.46
2022-12-18T19:06:59.194Z,-2.42
2022-12-18T19:10:17.208Z,-2.44
2022-12-18T19:13:37.256Z,-2.46
2022-12-18T19:16:45.561Z,-2.50
2022-12-18T19:19:49.534Z,-2.50
2022-12-18T19:23:05.605Z,-2.57
2022-12-18T19:26:27.327Z,-2.57
2022-12-18T19:29:34.793Z,-2.54
2022-12-18T19:32:49.341Z,-2.54
2022-12-18T19:35:57.612Z,-2.59
2022-12-18T19:39:10.743Z,-2.53
2022-12-18T19:42:18.905Z,-2.52
2022-12-18T19:45:42.418Z,-2.51
2022-12-18T19:48:59.081Z,-2.46
2022-12-18T19:52:10.306Z,-2.43
2022-12-18T19:55:24.949Z,-2.32
2022-12-18T19:58:36.639Z,-2.40
2022-12-18T20:02:01.848Z,-2.33
2022-12-18T20:05:19.036Z,-2.34
2022-12-18T20:08:30.841Z,-2.28
2022-12-18T20:11:42.632Z,-2.25
2022-12-18T20:18:40.066Z,-2.28
2022-12-18T20:21:54.105Z,-2.29
2022-12-18T20:25:12.952Z,-2.26
2022-12-18T20:28:57.565Z,-2.29
2022-12-18T20:32:16.803Z,-2.30
2022-12-18T20:35:24.660Z,-2.27
2022-12-18T20:38:32.965Z,-2.25
2022-12-18T20:41:42.637Z,-2.25
2022-12-18T20:44:50.096Z,-2.22
2022-12-18T20:48:33.871Z,-2.17
2022-12-18T20:51:42.827Z,-2.09
2022-12-18T20:54:46.196Z,-2.16
2022-12-18T20:57:49.552Z,-2.26
2022-12-18T21:01:06.770Z,-2.23
2022-12-18T21:04:09.729Z,-2.23
2022-12-18T21:11:00.862Z,-2.19
2022-12-18T21:14:24.330Z,-2.14
2022-12-18T21:17:41.728Z,-2.18
2022-12-18T21:20:56.444Z,-2.25
2022-12-18T21:24:22.665Z,-2.26
2022-12-18T21:28:08.641Z,-2.28
2022-12-18T21:35:11.180Z,-2.17
2022-12-18T21:38:22.016Z,-2.19
2022-12-18T21:41:45.183Z,-2.14
2022-12-18T21:44:51.369Z,-2.13
2022-12-18T21:48:01.808Z,-2.08
2022-12-18T21:51:15.445Z,-2.10
2022-12-18T21:54:21.674Z,-2.13
2022-12-18T21:57:32.989Z,-2.13
2022-12-18T22:00:47.018Z,-2.14
2022-12-18T22:03:55.340Z,-2.10
2022-12-18T22:07:09.246Z,-1.99
2022-12-18T22:10:29.212Z,-2.02
2022-12-18T22:13:52.584Z,-2.11
2022-12-18T22:17:02.629Z,-2.10
2022-12-18T22:20:14.069Z,-2.14
2022-12-18T22:23:25.929Z,-2.16
2022-12-18T22:26:39.294Z,-2.06
2022-12-18T22:30:02.317Z,-2.04
2022-12-18T22:33:08.628Z,-1.99
2022-12-18T22:36:20.612Z,-1.93
2022-12-18T22:39:37.595Z,-1.93
2022-12-18T22:42:43.480Z,-1.91
2022-12-18T22:45:49.669Z,-1.89
2022-12-18T22:48:57.761Z,-1.94
2022-12-18T22:52:09.164Z,-1.91
2022-12-18T22:55:22.707Z,-1.89
2022-12-18T22:58:50.275Z,-1.84
2022-12-18T23:01:58.968Z,-1.88
2022-12-18T23:05:07.187Z,-1.79
2022-12-18T23:08:10.173Z,-1.82
2022-12-18T23:11:15.725Z,-1.79
2022-12-18T23:14:21.060Z,-1.77
2022-12-18T23:17:24.026Z,-1.80
2022-12-18T23:20:28.708Z,-1.76
2022-12-18T23:23:31.530Z,-1.78
2022-12-18T23:26:36.286Z,-1.73
2022-12-18T23:29:39.336Z,-1.66
2022-12-18T23:32:42.139Z,-1.56
2022-12-18T23:35:44.884Z,-1.48
2022-12-18T23:38:50.493Z,-1.52
2022-12-18T23:41:55.223Z,-1.43
2022-12-18T23:44:58.814Z,-1.41
2022-12-18T23:48:02.720Z,-1.39
2022-12-18T23:51:07.806Z,-1.43
2022-12-18T23:54:10.586Z,-1.47
2022-12-18T23:57:14.887Z,-1.38
